createdAt,value
2022-07-25T00:00:27.863Z,1.80
2022-07-25T00:02:55.083Z,1.60
2022-07-25T00:05:22.482Z,1.83
2022-07-25T00:07:50.226Z,1.65
2022-07-25T00:10:17.251Z,1.85
2022-07-25T00:12:44.580Z,1.70
2022-07-25T00:15:11.844Z,1.75
2022-07-25T00:17:39.182Z,1.60
2022-07-25T00:20:07.580Z,1.60
2022-07-25T00:22:34.583Z,1.40
2022-07-25T00:25:01.706Z,1.40
2022-07-25T00:27:28.706Z,1.50
2022-07-25T00:29:55.670Z,1.58
2022-07-25T00:32:22.672Z,1.30
2022-07-25T00:34:49.607Z,1.70
2022-07-25T00:37:16.627Z,1.27
2022-07-25T00:39:43.572Z,1.58
2022-07-25T00:42:10.578Z,1.33
2022-07-25T00:44:37.845Z,1.40
2022-07-25T00:47:04.876Z,1.20
2022-07-25T00:49:31.905Z,1.70
2022-07-25T00:51:59.497Z,1.58
2022-07-25T00:54:26.600Z,1.40
2022-07-25T00:56:53.602Z,1.30
2022-07-25T00:59:20.541Z,1.40
2022-07-25T01:01:48.574Z,1.40
2022-07-25T01:04:17.030Z,1.30
2022-07-25T01:06:44.638Z,1.50
2022-07-25T01:09:11.690Z,2.10
2022-07-25T01:11:38.878Z,2.10
2022-07-25T01:14:06.508Z,2.28
2022-07-25T01:16:33.956Z,2.20
2022-07-25T01:19:01.035Z,2.13
2022-07-25T01:21:27.986Z,1.88
2022-07-25T01:23:54.997Z,1.77
2022-07-25T01:26:21.947Z,1.45
2022-07-25T01:28:48.871Z,1.92
2022-07-25T01:31:15.907Z,1.33
2022-07-25T01:33:42.908Z,1.30
2022-07-25T01:36:10.061Z,1.27
2022-07-25T01:38:37.121Z,1.25
2022-07-25T01:41:04.230Z,1.13
2022-07-25T01:43:31.159Z,1.27
2022-07-25T01:45:58.214Z,1.48
2022-07-25T01:48:25.276Z,0.98
2022-07-25T01:50:52.304Z,0.98
2022-07-25T01:53:19.525Z,1.40
2022-07-25T01:55:47.448Z,1.48
2022-07-25T01:58:14.360Z,1.42
2022-07-25T02:00:41.864Z,1.38
2022-07-25T02:03:27.174Z,1.50
2022-07-25T02:05:54.166Z,1.50
2022-07-25T02:08:21.256Z,1.42
2022-07-25T02:10:48.264Z,1.60
2022-07-25T02:13:15.380Z,1.73
2022-07-25T02:15:42.713Z,1.92
2022-07-25T02:18:09.712Z,1.65
2022-07-25T02:20:36.691Z,1.77
2022-07-25T02:23:04.641Z,2.00
2022-07-25T02:25:31.875Z,2.08
2022-07-25T02:27:59.578Z,2.00
2022-07-25T02:30:27.020Z,1.73
2022-07-25T02:32:54.277Z,1.80
2022-07-25T02:35:21.671Z,1.70
2022-07-25T02:37:48.615Z,2.00
2022-07-25T02:40:15.765Z,1.80
2022-07-25T02:42:42.739Z,1.73
2022-07-25T02:45:10.307Z,2.10
2022-07-25T02:47:37.331Z,2.08
2022-07-25T02:50:05.121Z,1.98
2022-07-25T02:52:32.170Z,1.80
2022-07-25T02:54:59.132Z,2.05
2022-07-25T02:57:26.049Z,2.05
2022-07-25T02:59:53.015Z,1.90
2022-07-25T03:02:19.950Z,2.10
2022-07-25T03:04:46.953Z,2.10
2022-07-25T03:07:13.954Z,1.60
2022-07-25T03:09:41.074Z,2.20
2022-07-25T03:12:08.172Z,2.25
2022-07-25T03:14:35.121Z,2.05
2022-07-25T03:17:02.153Z,2.38
2022-07-25T03:19:29.241Z,2.35
2022-07-25T03:21:56.188Z,2.10
2022-07-25T03:24:23.193Z,2.58
2022-07-25T03:26:50.466Z,2.50
2022-07-25T03:29:17.399Z,2.45
2022-07-25T03:31:44.987Z,2.50
2022-07-25T03:34:11.956Z,2.38
2022-07-25T03:36:38.925Z,2.97
2022-07-25T03:39:05.906Z,2.70
2022-07-25T03:41:33.176Z,2.45
2022-07-25T03:44:00.235Z,2.67
2022-07-25T03:46:27.402Z,2.92
2022-07-25T03:48:55.699Z,2.72
2022-07-25T03:51:22.833Z,2.92
2022-07-25T03:54:09.675Z,2.47
2022-07-25T03:56:40.275Z,2.50
2022-07-25T03:59:13.789Z,2.33
2022-07-25T04:01:41.742Z,2.13
2022-07-25T04:04:10.182Z,2.70
2022-07-25T04:06:38.545Z,2.70
2022-07-25T04:09:06.595Z,1.85
2022-07-25T04:11:35.924Z,2.15
2022-07-25T04:14:03.421Z,2.25
2022-07-25T04:16:31.604Z,2.38
2022-07-25T04:18:58.658Z,2.10
2022-07-25T04:21:28.022Z,2.67
2022-07-25T04:23:55.058Z,1.92
2022-07-25T04:26:22.204Z,1.90
2022-07-25T04:28:49.149Z,2.38
2022-07-25T04:31:16.379Z,2.30
2022-07-25T04:33:43.770Z,2.22
2022-07-25T04:36:10.730Z,2.38
2022-07-25T04:38:37.753Z,2.58
2022-07-25T04:41:05.428Z,2.50
2022-07-25T04:43:32.349Z,2.20
2022-07-25T04:45:59.825Z,2.13
2022-07-25T04:48:27.253Z,2.15
2022-07-25T04:50:54.416Z,2.47
2022-07-25T04:53:21.577Z,2.47
2022-07-25T04:55:48.613Z,2.22
2022-07-25T04:58:15.849Z,2.63
2022-07-25T05:00:43.041Z,2.40
2022-07-25T05:03:10.335Z,2.97
2022-07-25T05:05:37.916Z,2.53
2022-07-25T05:08:05.196Z,2.80
2022-07-25T05:10:32.138Z,2.67
2022-07-25T05:12:59.092Z,3.33
2022-07-25T05:15:26.383Z,3.55
2022-07-25T05:17:53.525Z,3.17
2022-07-25T05:20:20.442Z,4.20
2022-07-25T05:22:47.389Z,3.75
2022-07-25T05:25:14.619Z,3.92
2022-07-25T05:27:42.068Z,3.70
2022-07-25T05:30:10.969Z,3.58
2022-07-25T05:32:38.760Z,4.18
2022-07-25T05:35:08.111Z,3.78
2022-07-25T05:37:35.869Z,3.83
2022-07-25T05:40:03.753Z,4.05
2022-07-25T05:42:31.008Z,3.70
2022-07-25T05:44:57.957Z,4.18
2022-07-25T05:47:25.318Z,4.50
2022-07-25T05:49:52.334Z,4.57
2022-07-25T05:52:19.479Z,5.10
2022-07-25T05:54:46.504Z,4.70
2022-07-25T05:57:13.496Z,4.75
2022-07-25T05:59:40.405Z,4.38
2022-07-25T06:02:07.971Z,4.10
2022-07-25T06:04:35.019Z,4.50
2022-07-25T06:07:02.197Z,4.57
2022-07-25T06:09:30.671Z,4.55
2022-07-25T06:12:00.433Z,4.63
2022-07-25T06:14:29.211Z,4.75
2022-07-25T06:16:57.330Z,4.32
2022-07-25T06:19:24.497Z,5.10
2022-07-25T06:21:51.501Z,4.53
2022-07-25T06:24:18.655Z,5.25
2022-07-25T06:26:45.653Z,5.07
2022-07-25T06:29:12.701Z,4.72
2022-07-25T06:31:40.105Z,4.22
2022-07-25T06:34:07.609Z,4.60
2022-07-25T06:36:35.323Z,4.55
2022-07-25T06:39:02.695Z,3.83
2022-07-25T06:41:29.810Z,4.35
2022-07-25T06:43:56.828Z,4.22
2022-07-25T06:46:23.942Z,4.20
2022-07-25T06:48:51.058Z,4.50
2022-07-25T06:51:18.156Z,4.38
2022-07-25T06:53:45.217Z,4.47
2022-07-25T06:56:17.471Z,4.55
2022-07-25T06:58:44.982Z,4.18
2022-07-25T07:01:12.357Z,4.93
2022-07-25T07:03:40.434Z,4.78
2022-07-25T07:06:09.616Z,4.88
2022-07-25T07:08:36.745Z,5.00
2022-07-25T07:11:04.415Z,4.85
2022-07-25T07:13:31.447Z,5.03
2022-07-25T07:15:58.427Z,4.82
2022-07-25T07:18:25.540Z,4.78
2022-07-25T07:20:52.715Z,5.03
2022-07-25T07:23:19.677Z,4.15
2022-07-25T07:25:47.563Z,4.63
2022-07-25T07:28:15.834Z,6.22
2022-07-25T07:33:31.003Z,4.53
2022-07-25T07:35:58.003Z,4.63
2022-07-25T07:38:25.995Z,4.45
2022-07-25T07:40:54.129Z,4.45
2022-07-25T07:43:25.021Z,5.07
2022-07-25T07:45:56.883Z,5.63
2022-07-25T07:48:23.890Z,5.10
2022-07-25T07:50:50.809Z,5.32
2022-07-25T07:53:17.761Z,7.18
2022-07-25T07:55:45.406Z,6.00
2022-07-25T07:58:15.865Z,5.18
2022-07-25T08:00:47.367Z,5.10
2022-07-25T08:03:20.970Z,5.97
2022-07-25T08:05:49.438Z,5.80
2022-07-25T08:08:16.565Z,5.30
2022-07-25T08:10:48.592Z,6.38
2022-07-25T08:13:21.142Z,5.95
2022-07-25T08:15:50.287Z,5.82
2022-07-25T08:18:18.410Z,6.68
2022-07-25T08:20:49.026Z,5.82
2022-07-25T08:23:16.894Z,4.75
2022-07-25T08:25:44.768Z,5.43
2022-07-25T08:28:12.710Z,5.65
2022-07-25T08:30:40.688Z,5.35
2022-07-25T08:33:10.964Z,5.25
2022-07-25T08:35:38.038Z,5.25
2022-07-25T08:38:05.963Z,7.57
2022-07-25T08:40:34.240Z,6.85
2022-07-25T08:43:01.285Z,4.97
2022-07-25T08:45:28.858Z,5.07
2022-07-25T08:47:56.807Z,5.05
2022-07-25T08:50:28.812Z,4.93
2022-07-25T08:53:16.639Z,4.72
2022-07-25T08:55:45.896Z,5.15
2022-07-25T08:58:14.866Z,5.13
2022-07-25T09:00:42.763Z,5.03
2022-07-25T09:03:10.067Z,4.95
2022-07-25T09:05:37.550Z,5.00
2022-07-25T09:08:13.081Z,4.13
2022-07-25T09:10:45.702Z,4.55
2022-07-25T09:13:14.635Z,4.78
2022-07-25T09:15:49.487Z,5.15
2022-07-25T09:18:19.520Z,4.93
2022-07-25T09:20:55.493Z,4.63
2022-07-25T09:23:36.956Z,4.50
2022-07-25T09:26:14.845Z,4.40
2022-07-25T09:28:44.962Z,4.68
2022-07-25T09:31:13.602Z,5.22
2022-07-25T09:33:48.138Z,4.60
2022-07-25T09:36:15.343Z,4.65
2022-07-25T09:38:55.203Z,5.25
2022-07-25T09:41:23.066Z,4.28
2022-07-25T09:43:50.099Z,4.15
2022-07-25T10:17:32.652Z,5.93
2022-07-25T10:20:01.416Z,5.25
2022-07-25T10:22:56.361Z,4.90
2022-07-25T10:25:24.506Z,5.30
2022-07-25T10:28:01.070Z,4.90
2022-07-25T10:30:34.668Z,5.35
2022-07-25T10:33:15.193Z,5.35
2022-07-25T10:35:42.849Z,4.97
2022-07-25T10:38:10.245Z,4.82
2022-07-25T10:40:46.687Z,4.97
2022-07-25T10:43:22.005Z,5.05
2022-07-25T10:45:52.826Z,4.22
2022-07-25T10:48:28.973Z,4.90
2022-07-25T10:51:02.922Z,4.40
2022-07-25T10:53:38.518Z,4.47
2022-07-25T10:56:27.972Z,4.82
2022-07-25T10:58:59.063Z,4.60
2022-07-25T11:01:27.442Z,4.78
2022-07-25T11:03:57.258Z,4.30
2022-07-25T11:06:38.011Z,4.07
2022-07-25T11:09:28.677Z,4.10
2022-07-25T11:11:58.410Z,4.55
2022-07-25T11:14:33.466Z,4.80
2022-07-25T11:17:20.015Z,3.90
2022-07-25T11:20:03.107Z,4.53
2022-07-25T11:22:31.685Z,4.50
2022-07-25T11:24:59.678Z,4.90
2022-07-25T11:27:29.612Z,4.85
2022-07-25T11:30:15.058Z,5.20
2022-07-25T11:32:44.478Z,5.07
2022-07-25T11:35:13.736Z,4.43
2022-07-25T11:37:43.537Z,5.40
2022-07-25T11:40:11.584Z,5.15
2022-07-25T11:42:44.409Z,5.07
2022-07-25T11:45:26.395Z,5.47
2022-07-25T11:48:14.976Z,5.72
2022-07-25T11:50:44.106Z,5.32
2022-07-25T11:53:14.735Z,5.00
2022-07-25T11:55:43.383Z,5.53
2022-07-25T11:58:12.954Z,5.68
2022-07-25T12:00:43.559Z,5.70
2022-07-25T12:03:19.984Z,5.45
2022-07-25T12:05:48.366Z,5.55
2022-07-25T12:08:21.337Z,6.30
2022-07-25T12:10:50.708Z,7.43
2022-07-25T12:13:25.353Z,7.72
2022-07-25T12:15:52.554Z,6.80
2022-07-25T12:18:19.488Z,7.35
2022-07-25T12:20:46.594Z,7.75
2022-07-25T12:23:13.792Z,7.10
2022-07-25T12:25:43.842Z,8.13
2022-07-25T12:28:11.866Z,7.07
2022-07-25T12:30:40.319Z,6.97
2022-07-25T12:33:07.802Z,6.50
2022-07-25T12:35:37.479Z,5.68
2022-07-25T12:38:05.442Z,6.22
2022-07-25T12:40:33.476Z,7.00
2022-07-25T12:43:01.330Z,6.22
2022-07-25T12:45:28.735Z,6.45
2022-07-25T12:47:55.896Z,7.45
2022-07-25T12:50:25.858Z,6.53
2022-07-25T12:52:53.740Z,6.15
2022-07-25T12:55:22.968Z,6.80
2022-07-25T12:57:50.615Z,6.07
2022-07-25T13:00:21.052Z,6.22
2022-07-25T13:02:49.449Z,5.93
2022-07-25T13:05:16.513Z,5.57
2022-07-25T13:07:43.843Z,5.13
2022-07-25T13:10:11.082Z,5.78
2022-07-25T13:12:38.132Z,5.75
2022-07-25T13:15:05.504Z,5.68
2022-07-25T13:17:33.045Z,5.40
2022-07-25T13:20:00.593Z,5.85
2022-07-25T13:22:28.094Z,6.15
2022-07-25T13:24:55.174Z,5.40
2022-07-25T13:27:22.839Z,6.03
2022-07-25T13:29:56.393Z,6.15
2022-07-25T13:32:24.351Z,6.43
2022-07-25T13:34:51.299Z,6.15
2022-07-25T13:37:18.258Z,5.93
2022-07-25T13:39:45.258Z,7.30
2022-07-25T13:42:12.213Z,6.95
2022-07-25T13:44:39.125Z,5.70
2022-07-25T13:47:06.308Z,5.70
2022-07-25T13:49:33.342Z,5.40
2022-07-25T13:52:00.380Z,4.97
2022-07-25T13:54:27.311Z,4.93
2022-07-25T13:56:54.349Z,5.38
2022-07-25T13:59:22.064Z,5.10
2022-07-25T14:01:50.329Z,5.90
2022-07-25T14:04:17.657Z,6.18
2022-07-25T14:06:44.695Z,6.13
2022-07-25T14:09:11.801Z,6.60
2022-07-25T14:11:38.756Z,6.70
2022-07-25T14:14:05.717Z,6.60
2022-07-25T14:16:34.204Z,6.45
2022-07-25T14:19:02.439Z,6.93
2022-07-25T14:21:30.217Z,6.70
2022-07-25T14:23:57.357Z,6.38
2022-07-25T14:26:24.443Z,6.57
2022-07-25T14:28:51.625Z,6.95
2022-07-25T14:31:18.727Z,6.55
2022-07-25T14:33:45.737Z,7.22
2022-07-25T14:36:12.988Z,6.25
2022-07-25T14:38:39.955Z,7.35
2022-07-25T14:41:12.301Z,6.97
2022-07-25T14:43:40.863Z,5.90
2022-07-25T14:46:08.485Z,6.13
2022-07-25T14:48:37.523Z,5.80
2022-07-25T14:51:05.711Z,6.30
2022-07-25T14:53:33.132Z,6.65
2022-07-25T14:56:01.033Z,6.88
2022-07-25T14:58:28.197Z,6.40
2022-07-25T15:00:55.282Z,6.63
2022-07-25T15:03:22.391Z,6.13
2022-07-25T15:05:49.342Z,6.28
2022-07-25T15:08:16.298Z,6.35
2022-07-25T15:10:43.301Z,6.80
2022-07-25T15:15:57.765Z,7.20
2022-07-25T15:18:24.712Z,5.20
2022-07-25T15:20:52.141Z,6.07
2022-07-25T15:23:21.419Z,6.60
2022-07-25T15:26:04.795Z,6.50
2022-07-25T15:28:38.350Z,6.13
2022-07-25T15:31:06.655Z,6.13
2022-07-25T15:33:34.015Z,6.72
2022-07-25T15:36:01.246Z,6.57
2022-07-25T15:38:31.719Z,7.22
2022-07-25T15:40:59.004Z,5.53
2022-07-25T15:43:26.828Z,7.63
2022-07-25T15:45:53.774Z,5.35
2022-07-25T15:48:20.941Z,4.82
2022-07-25T15:50:51.633Z,5.47
2022-07-25T15:53:18.857Z,5.47
2022-07-25T15:55:45.819Z,4.75
2022-07-25T15:58:13.397Z,5.13
2022-07-25T16:00:41.602Z,5.25
2022-07-25T16:03:09.480Z,6.22
2022-07-25T16:05:38.101Z,4.35
2022-07-25T16:08:05.852Z,4.90
2022-07-25T16:10:34.031Z,5.38
2022-07-25T16:13:01.753Z,4.95
2022-07-25T16:15:28.987Z,4.80
2022-07-25T16:18:01.681Z,4.50
2022-07-25T16:20:29.179Z,4.63
2022-07-25T16:22:57.904Z,4.65
2022-07-25T16:25:26.493Z,4.90
2022-07-25T16:27:54.261Z,5.35
2022-07-25T16:30:22.205Z,5.75
2022-07-25T16:32:49.374Z,5.30
2022-07-25T16:35:16.791Z,5.32
2022-07-25T16:37:43.840Z,5.70
2022-07-25T16:40:11.196Z,5.28
2022-07-25T16:42:38.290Z,4.72
2022-07-25T16:45:06.087Z,4.60
2022-07-25T16:47:32.994Z,4.90
2022-07-25T16:49:59.981Z,4.63
2022-07-25T16:52:27.070Z,4.93
2022-07-25T16:54:54.016Z,4.75
2022-07-25T16:57:24.787Z,5.32
2022-07-25T16:59:53.757Z,5.13
2022-07-25T17:02:27.545Z,5.03
2022-07-25T17:04:56.331Z,4.72
2022-07-25T17:07:23.546Z,5.55
2022-07-25T17:09:50.478Z,5.45
2022-07-25T17:12:17.698Z,5.15
2022-07-25T17:14:45.883Z,4.95
2022-07-25T17:17:13.366Z,4.55
2022-07-25T17:19:41.060Z,4.57
2022-07-25T17:22:11.425Z,4.57
2022-07-25T17:24:39.235Z,4.63
2022-07-25T17:27:08.520Z,5.30
2022-07-25T17:29:36.253Z,5.03
2022-07-25T17:32:06.114Z,5.30
2022-07-25T17:34:33.709Z,5.30
2022-07-25T17:37:03.158Z,5.40
2022-07-25T17:39:30.750Z,5.93
2022-07-25T17:41:57.766Z,5.70
2022-07-25T17:44:24.900Z,5.63
2022-07-25T17:46:53.913Z,5.95
2022-07-25T17:49:21.914Z,5.82
2022-07-25T17:51:49.030Z,5.35
2022-07-25T17:54:16.393Z,5.78
2022-07-25T17:56:44.469Z,5.53
2022-07-25T17:59:11.578Z,5.70
2022-07-25T18:01:40.036Z,5.35
2022-07-25T18:04:07.520Z,5.47
2022-07-25T18:06:34.923Z,5.82
2022-07-25T18:09:01.958Z,5.50
2022-07-25T18:11:29.172Z,5.15
2022-07-25T18:13:56.204Z,4.68
2022-07-25T18:16:23.251Z,4.40
2022-07-25T18:18:50.939Z,3.97
2022-07-25T18:21:17.994Z,3.58
2022-07-25T18:23:44.890Z,4.15
2022-07-25T18:26:12.076Z,3.70
2022-07-25T18:28:39.074Z,3.90
2022-07-25T18:31:06.296Z,3.60
2022-07-25T18:33:33.530Z,3.78
2022-07-25T18:36:05.453Z,3.33
2022-07-25T18:38:34.676Z,3.83
2022-07-25T18:41:26.803Z,3.55
2022-07-25T18:43:50.855Z,4.32
2022-07-25T18:46:18.452Z,4.55
2022-07-25T18:48:45.762Z,3.42
2022-07-25T18:51:12.780Z,3.83
2022-07-25T18:53:40.705Z,4.43
2022-07-25T18:56:09.983Z,3.80
2022-07-25T18:58:37.056Z,4.15
2022-07-25T19:01:04.106Z,3.88
2022-07-25T19:03:32.891Z,4.53
2022-07-25T19:06:03.384Z,4.13
2022-07-25T19:08:30.927Z,4.38
2022-07-25T19:10:57.909Z,4.80
2022-07-25T19:13:47.789Z,4.47
2022-07-25T19:18:39.981Z,4.68
2022-07-25T19:21:07.278Z,4.70
2022-07-25T19:23:34.326Z,4.35
2022-07-25T19:26:02.538Z,4.30
2022-07-25T19:28:29.777Z,4.45
2022-07-25T19:30:57.459Z,4.55
2022-07-25T19:33:24.631Z,4.55
2022-07-25T19:35:52.360Z,4.38
2022-07-25T19:38:19.965Z,4.20
2022-07-25T19:40:47.258Z,5.32
2022-07-25T19:43:14.524Z,5.05
2022-07-25T19:45:42.127Z,4.35
2022-07-25T19:48:09.568Z,4.35
2022-07-25T19:50:36.627Z,4.38
2022-07-25T19:53:03.593Z,4.28
2022-07-25T19:55:30.678Z,4.35
2022-07-25T19:57:57.660Z,4.38
2022-07-25T20:00:24.775Z,4.32
2022-07-25T20:02:51.826Z,4.70
2022-07-25T20:05:18.990Z,5.20
2022-07-25T20:07:45.933Z,4.43
2022-07-25T20:10:13.307Z,4.90
2022-07-25T20:12:44.686Z,4.93
2022-07-25T20:15:11.766Z,4.03
2022-07-25T20:17:38.808Z,3.70
2022-07-25T20:20:07.292Z,3.85
2022-07-25T20:22:37.690Z,3.83
2022-07-25T20:25:07.032Z,3.80
2022-07-25T20:27:34.606Z,4.25
2022-07-25T20:30:03.913Z,3.45
2022-07-25T20:32:31.043Z,3.22
2022-07-25T20:34:58.115Z,4.03
2022-07-25T20:37:25.490Z,3.97
2022-07-25T20:39:53.100Z,3.92
2022-07-25T20:42:21.191Z,3.78
2022-07-25T20:44:48.123Z,3.60
2022-07-25T20:47:16.195Z,4.07
2022-07-25T20:49:43.595Z,4.00
2022-07-25T20:52:10.593Z,3.63
2022-07-25T20:54:37.582Z,3.80
2022-07-25T20:57:04.837Z,3.30
2022-07-25T20:59:32.466Z,3.13
2022-07-25T21:01:59.759Z,3.40
2022-07-25T21:04:27.255Z,3.40
2022-07-25T21:06:56.582Z,3.60
2022-07-25T21:09:24.257Z,2.80
2022-07-25T21:11:51.199Z,3.72
2022-07-25T21:14:18.173Z,4.30
2022-07-25T21:16:45.228Z,4.55
2022-07-25T21:19:12.226Z,4.22
2022-07-25T21:21:39.146Z,4.20
2022-07-25T21:24:07.173Z,4.60
2022-07-25T21:26:34.201Z,5.10
2022-07-25T21:29:01.171Z,4.85
2022-07-25T21:31:28.158Z,4.53
2022-07-25T21:33:55.049Z,4.30
2022-07-25T21:36:21.978Z,4.10
2022-07-25T21:38:49.004Z,4.30
2022-07-25T21:41:16.002Z,4.40
2022-07-25T21:43:44.303Z,3.90
2022-07-25T21:46:11.476Z,4.03
2022-07-25T21:48:57.449Z,4.13
2022-07-25T21:51:24.980Z,3.80
2022-07-25T21:54:00.329Z,4.65
2022-07-25T21:56:27.262Z,4.78
2022-07-25T21:58:54.274Z,5.07
2022-07-25T22:01:21.679Z,4.20
2022-07-25T22:03:48.756Z,3.92
2022-07-25T22:06:15.793Z,4.15
2022-07-25T22:08:42.721Z,4.55
2022-07-25T22:11:16.262Z,4.25
2022-07-25T22:13:56.656Z,4.60
2022-07-25T22:16:24.730Z,4.57
2022-07-25T22:18:51.791Z,4.18
2022-07-25T22:21:18.721Z,3.80
2022-07-25T22:23:45.632Z,2.92
2022-07-25T22:26:12.557Z,3.33
2022-07-25T22:28:39.532Z,3.15
2022-07-25T22:31:06.590Z,3.30
2022-07-25T22:33:34.976Z,3.38
2022-07-25T22:36:02.108Z,4.22
2022-07-25T22:38:29.205Z,3.58
2022-07-25T22:40:56.801Z,3.50
2022-07-25T22:43:24.047Z,4.18
2022-07-25T22:46:11.871Z,4.28
2022-07-25T22:48:42.592Z,4.43
2022-07-25T22:51:09.606Z,4.53
2022-07-25T22:53:36.513Z,4.60
2022-07-25T22:56:03.624Z,4.07
2022-07-25T22:58:30.499Z,4.22
2022-07-25T23:00:57.481Z,3.80
2022-07-25T23:03:24.605Z,4.78
2022-07-25T23:05:57.617Z,4.28
2022-07-25T23:08:24.774Z,4.80
2022-07-25T23:10:51.712Z,4.15
2022-07-25T23:13:19.026Z,4.75
2022-07-25T23:15:49.440Z,4.32
2022-07-25T23:18:17.472Z,5.00
2022-07-25T23:20:44.422Z,4.68
2022-07-25T23:23:11.362Z,5.05
2022-07-25T23:25:39.303Z,4.80
2022-07-25T23:28:06.516Z,4.63
2022-07-25T23:30:39.712Z,3.80
2022-07-25T23:33:08.108Z,4.30
2022-07-25T23:35:35.339Z,3.40
2022-07-25T23:38:02.706Z,4.03
2022-07-25T23:40:30.353Z,3.72
2022-07-25T23:42:57.352Z,4.20
2022-07-25T23:45:24.967Z,3.63
2022-07-25T23:47:55.507Z,4.00
2022-07-25T23:50:23.386Z,4.30
2022-07-25T23:52:50.377Z,3.85
2022-07-25T23:55:17.556Z,3.80
2022-07-25T23:57:44.465Z,3.80
